Time;durP1;ratioP1;P1;durP2;ratioP2;P2;SDS_P1;SDS_P2;PMS_P1;PMS_P2;Temp;Humidity;BMP_temperature;BMP_pressure;BME280_temperature;BME280_humidity;BME280_pressure;Samples;Min_cycle;Max_cycle;Signal;HPM_P1;HPM_P2
2023/05/31 00:01:08;;;;;;;6.15;4.60;;;;;;;14.52;68.42;102466.47;5035783;28;20060;-63
2023/05/31 00:03:35;;;;;;;8.40;4.40;;;;;;;14.53;68.64;102463.81;5035924;28;20033;-63
2023/05/31 00:06:00;;;;;;;6.22;4.53;;;;;;;14.45;69.02;102462.72;5035946;28;20041;-64
2023/05/31 00:08:26;;;;;;;6.75;4.78;;;;;;;14.44;69.24;102468.94;5035470;28;20048;-64
2023/05/31 00:10:51;;;;;;;8.27;4.47;;;;;;;14.44;69.19;102462.72;5017810;28;20075;-63
2023/05/31 00:13:17;;;;;;;6.97;4.65;;;;;;;14.45;69.57;102465.38;5035480;28;20022;-63
2023/05/31 00:15:42;;;;;;;7.05;4.93;;;;;;;14.40;69.63;102469.72;5035514;28;20101;-64
2023/05/31 00:18:07;;;;;;;7.25;4.50;;;;;;;14.39;69.81;102473.25;5035444;28;20490;-63
2023/05/31 00:20:33;;;;;;;7.10;4.57;;;;;;;14.38;69.85;102474.09;5035533;28;20021;-65
2023/05/31 00:22:58;;;;;;;7.30;4.80;;;;;;;14.37;70.09;102464.34;5035187;28;20022;-64
2023/05/31 00:25:23;;;;;;;7.30;4.70;;;;;;;14.38;70.04;102462.56;5034874;28;20037;-64
2023/05/31 00:27:49;;;;;;;6.70;4.80;;;;;;;14.34;70.11;102460.72;5035299;28;20021;-62
2023/05/31 00:30:14;;;;;;;6.45;4.53;;;;;;;14.31;70.42;102460.66;5035437;28;20029;-62
2023/05/31 00:32:40;;;;;;;8.27;4.88;;;;;;;14.23;70.80;102458.72;5035153;28;20021;-63
2023/05/31 00:35:05;;;;;;;11.15;4.68;;;;;;;14.20;70.93;102465.72;5035028;28;20475;-64
2023/05/31 00:37:36;;;;;;;6.78;4.75;;;;;;;14.18;71.14;102465.72;5034904;28;20061;-63
2023/05/31 00:40:04;;;;;;;7.68;4.80;;;;;;;14.17;71.03;102466.56;5034997;28;20398;-62
2023/05/31 00:42:30;;;;;;;6.45;4.68;;;;;;;14.15;71.36;102464.75;5035256;28;20120;-62
2023/05/31 00:44:55;;;;;;;8.25;4.97;;;;;;;14.09;71.81;102465.50;5017156;28;20061;-63
2023/05/31 00:47:20;;;;;;;6.57;4.50;;;;;;;14.11;71.55;102473.50;5034943;28;20447;-62
2023/05/31 00:49:46;;;;;;;6.70;4.72;;;;;;;14.10;71.58;102467.31;5033797;28;20034;-63
2023/05/31 00:52:11;;;;;;;9.75;4.80;;;;;;;14.15;71.75;102467.41;5034545;28;20454;-63
2023/05/31 00:54:37;;;;;;;7.10;4.65;;;;;;;14.13;71.85;102477.09;5034918;28;20073;-62
2023/05/31 00:57:03;;;;;;;8.07;4.68;;;;;;;14.11;71.86;102474.41;5034606;28;20502;-63
2023/05/31 00:59:28;;;;;;;7.97;4.97;;;;;;;14.04;72.33;102475.13;5034451;28;20023;-62
2023/05/31 01:01:57;;;;;;;9.82;4.60;;;;;;;13.95;72.62;102475.81;5016869;28;20105;-64
2023/05/31 01:04:22;;;;;;;9.13;5.35;;;;;;;13.93;72.86;102472.25;5016606;28;20379;-64
2023/05/31 01:06:49;;;;;;;6.35;4.72;;;;;;;13.94;72.91;102478.44;5034116;28;20029;-63
2023/05/31 01:09:16;;;;;;;7.82;5.30;;;;;;;13.89;73.14;102480.09;5034382;28;20041;-63
2023/05/31 01:12:12;;;;;;;8.35;4.95;;;;;;;13.92;73.10;102477.53;5033257;28;20052;-63
2023/05/31 01:15:17;;;;;;;7.20;4.80;;;;;;;13.90;73.25;102480.13;5034494;28;20068;-62
2023/05/31 01:18:00;;;;;;;6.90;5.00;;;;;;;13.84;73.72;102474.69;4953894;29;20118;-62
2023/05/31 01:20:34;;;;;;;7.30;5.00;;;;;;;13.91;73.54;102479.25;4954144;29;20046;-63
2023/05/31 01:23:37;;;;;;;8.70;5.25;;;;;;;13.86;73.59;102478.25;5006024;28;20044;-62
2023/05/31 01:26:17;;;;;;;6.63;4.80;;;;;;;13.86;73.73;102469.41;5033833;28;20521;-64
2023/05/31 01:28:47;;;;;;;7.45;4.82;;;;;;;13.80;74.04;102475.47;5034255;28;20047;-62
2023/05/31 01:31:18;;;;;;;7.32;5.05;;;;;;;13.81;73.99;102479.03;5034427;28;20028;-63
2023/05/31 01:33:43;;;;;;;6.85;5.35;;;;;;;13.78;74.18;102478.06;5033961;28;20028;-64
2023/05/31 01:36:09;;;;;;;9.50;5.70;;;;;;;13.77;74.29;102470.06;5033982;28;20395;-63
2023/05/31 01:38:34;;;;;;;9.30;5.45;;;;;;;13.74;74.89;102470.00;5032545;28;20061;-64
2023/05/31 01:41:01;;;;;;;7.40;5.47;;;;;;;13.73;74.96;102476.19;5033808;28;20025;-64
2023/05/31 01:43:28;;;;;;;6.40;5.07;;;;;;;13.72;74.63;102475.28;5033837;28;20037;-64
2023/05/31 01:45:55;;;;;;;8.20;5.13;;;;;;;13.64;75.34;102473.31;5033995;28;20119;-62
2023/05/31 01:48:20;;;;;;;7.35;5.45;;;;;;;13.56;75.86;102464.25;5033664;28;20462;-64
2023/05/31 01:50:46;;;;;;;10.32;5.32;;;;;;;13.49;76.17;102469.44;5033516;28;20024;-63
2023/05/31 01:53:12;;;;;;;8.45;5.43;;;;;;;13.47;75.74;102452.53;5033742;28;20470;-64
2023/05/31 01:55:37;;;;;;;9.90;6.00;;;;;;;13.54;76.35;102461.56;5032136;28;20029;-64
2023/05/31 01:58:05;;;;;;;10.82;5.43;;;;;;;13.54;76.48;102450.94;5033598;28;20036;-65
2023/05/31 02:00:31;;;;;;;8.07;5.78;;;;;;;13.54;76.35;102453.59;5033577;28;20026;-64
2023/05/31 02:02:57;;;;;;;7.93;5.50;;;;;;;13.54;76.26;102453.59;5031814;28;20037;-64
2023/05/31 02:05:23;;;;;;;8.70;5.57;;;;;;;13.50;76.31;102452.63;5033403;28;20073;-63
2023/05/31 02:07:48;;;;;;;9.48;5.50;;;;;;;13.56;76.49;102454.53;5033353;28;20057;-64
2023/05/31 02:10:14;;;;;;;9.48;5.53;;;;;;;13.46;76.53;102450.75;5033543;28;20026;-64
2023/05/31 02:12:40;;;;;;;8.60;5.80;;;;;;;13.42;76.70;102462.16;5033671;28;20075;-64
2023/05/31 02:15:12;;;;;;;8.00;5.65;;;;;;;13.38;77.02;102460.28;5033492;28;20041;-63
2023/05/31 02:17:42;;;;;;;10.30;5.82;;;;;;;13.34;77.27;102449.53;5033536;28;20037;-63
2023/05/31 02:20:10;;;;;;;9.63;5.63;;;;;;;13.36;77.50;102448.75;5033478;28;20471;-62
2023/05/31 02:22:35;;;;;;;8.75;5.85;;;;;;;13.32;77.49;102449.53;5033179;28;20120;-64
2023/05/31 02:25:01;;;;;;;8.50;6.07;;;;;;;13.28;78.13;102445.88;5033017;28;20061;-64
2023/05/31 02:27:29;;;;;;;9.82;5.72;;;;;;;13.25;78.13;102448.44;5032817;28;20053;-64
2023/05/31 02:29:54;;;;;;;8.55;6.05;;;;;;;13.24;77.89;102446.66;5033345;28;20017;-63
2023/05/31 02:32:20;;;;;;;9.70;5.75;;;;;;;13.26;78.17;102449.34;5032951;28;20021;-63
2023/05/31 02:34:45;;;;;;;8.68;6.30;;;;;;;13.23;78.33;102447.53;5033177;28;20458;-64
2023/05/31 02:37:10;;;;;;;7.68;5.88;;;;;;;13.24;77.91;102448.44;5032916;28;20072;-63
2023/05/31 02:39:36;;;;;;;9.93;5.90;;;;;;;13.31;78.01;102457.44;5032937;28;20051;-63
2023/05/31 02:42:01;;;;;;;9.70;5.72;;;;;;;13.27;78.42;102446.75;5032968;28;20370;-62
2023/05/31 02:44:27;;;;;;;8.90;6.47;;;;;;;13.19;78.58;102445.63;5032335;28;20038;-63
2023/05/31 02:46:52;;;;;;;9.40;6.07;;;;;;;13.18;78.76;102445.56;5032769;28;20032;-63
2023/05/31 02:49:17;;;;;;;8.25;6.28;;;;;;;13.19;78.69;102450.00;5032741;28;20109;-65
2023/05/31 02:51:43;;;;;;;10.02;6.28;;;;;;;13.21;78.75;102443.00;5032839;28;20029;-63
2023/05/31 02:54:08;;;;;;;9.57;6.60;;;;;;;13.19;78.60;102452.66;5032517;28;20115;-63
2023/05/31 02:56:33;;;;;;;8.98;6.05;;;;;;;13.13;78.69;102449.84;5032554;28;20029;-64
2023/05/31 02:58:59;;;;;;;9.65;6.25;;;;;;;13.13;78.69;102453.41;5031397;28;20467;-63
2023/05/31 03:01:24;;;;;;;8.80;6.10;;;;;;;13.13;78.86;102450.75;5032517;28;20037;-64
2023/05/31 03:03:50;;;;;;;9.57;6.43;;;;;;;13.12;79.10;102456.03;5032958;28;20112;-64
2023/05/31 03:06:19;;;;;;;10.45;6.50;;;;;;;13.08;79.08;102456.81;5032678;28;20055;-65
2023/05/31 03:08:44;;;;;;;10.05;6.75;;;;;;;13.08;79.07;102452.41;5032692;28;20045;-63
2023/05/31 03:11:10;;;;;;;11.38;7.00;;;;;;;13.08;79.12;102455.06;5032618;28;20021;-64
2023/05/31 03:13:35;;;;;;;10.15;6.85;;;;;;;13.03;79.40;102454.94;5033671;28;20414;-63
2023/05/31 03:16:01;;;;;;;10.07;6.68;;;;;;;13.01;79.29;102451.31;5036414;28;20100;-65
2023/05/31 03:18:26;;;;;;;9.93;7.05;;;;;;;13.02;79.47;102458.44;5036472;28;20025;-64
2023/05/31 03:20:51;;;;;;;11.57;6.50;;;;;;;13.04;79.04;102456.72;5036781;28;20026;-64
2023/05/31 03:23:17;;;;;;;10.55;6.65;;;;;;;13.01;79.42;102456.63;5036312;28;20025;-64
2023/05/31 03:25:42;;;;;;;10.23;6.88;;;;;;;12.98;79.55;102453.91;5035799;28;20053;-63
2023/05/31 03:28:08;;;;;;;10.45;6.85;;;;;;;12.99;79.47;102460.13;5035933;28;20080;-62
2023/05/31 03:30:33;;;;;;;10.43;6.75;;;;;;;13.02;79.24;102463.75;5035628;28;20494;-65
2023/05/31 03:32:58;;;;;;;12.15;7.40;;;;;;;13.01;79.48;102461.94;5035722;28;20399;-63
2023/05/31 03:35:24;;;;;;;13.75;7.35;;;;;;;13.00;79.60;102457.50;5035753;28;20108;-63
2023/05/31 03:37:49;;;;;;;10.60;6.93;;;;;;;13.02;79.52;102445.19;5035616;28;20041;-64
2023/05/31 03:40:15;;;;;;;9.25;6.78;;;;;;;12.93;79.64;102444.94;5035765;28;20026;-63
2023/05/31 03:42:40;;;;;;;9.63;6.50;;;;;;;12.93;79.91;102446.66;5035583;28;20037;-63
2023/05/31 03:45:06;;;;;;;9.65;7.53;;;;;;;12.92;79.92;102444.88;5035428;28;20072;-63
2023/05/31 03:47:32;;;;;;;11.98;7.18;;;;;;;12.88;80.19;102445.66;5017949;28;20033;-63
2023/05/31 03:49:57;;;;;;;13.10;7.10;;;;;;;12.83;80.04;102440.22;5035398;28;20088;-65
2023/05/31 03:52:22;;;;;;;10.38;7.15;;;;;;;12.86;79.96;102445.63;5035214;28;20049;-64
2023/05/31 03:54:48;;;;;;;9.45;7.03;;;;;;;12.89;80.69;102448.38;5035369;28;20072;-64
2023/05/31 03:57:13;;;;;;;11.40;7.18;;;;;;;12.85;80.54;102442.91;5035305;28;20034;-63
2023/05/31 03:59:39;;;;;;;12.02;7.60;;;;;;;12.86;80.69;102450.03;5035431;28;20387;-64
2023/05/31 04:02:05;;;;;;;11.98;7.40;;;;;;;12.83;80.77;102464.09;5035076;28;20112;-63
2023/05/31 04:04:30;;;;;;;11.65;7.45;;;;;;;12.78;81.29;102453.38;5035067;28;20068;-64
2023/05/31 04:06:56;;;;;;;11.88;7.40;;;;;;;12.78;81.25;102457.78;5035156;28;20037;-63
2023/05/31 04:09:23;;;;;;;14.27;7.75;;;;;;;12.87;80.93;102460.69;5035110;28;20135;-63
2023/05/31 04:11:49;;;;;;;11.02;7.07;;;;;;;12.89;80.79;102452.75;5035371;28;20025;-64
2023/05/31 04:14:14;;;;;;;10.98;7.18;;;;;;;12.93;80.71;102459.94;5034833;28;20052;-64
2023/05/31 04:16:40;;;;;;;10.40;6.90;;;;;;;12.99;80.77;102453.06;5034871;28;20463;-64
2023/05/31 04:19:05;;;;;;;12.55;7.80;;;;;;;12.95;80.55;102450.28;5034859;28;20030;-64
2023/05/31 04:21:32;;;;;;;11.00;7.25;;;;;;;12.96;80.69;102450.31;5034872;28;20119;-65
2023/05/31 04:23:58;;;;;;;11.88;7.95;;;;;;;12.95;80.78;102443.22;5034397;28;20040;-64
2023/05/31 04:26:23;;;;;;;11.82;7.88;;;;;;;12.96;80.88;102454.72;5034579;28;20041;-64
2023/05/31 04:28:53;;;;;;;11.35;7.63;;;;;;;13.04;80.67;102456.72;5034644;28;20483;-64
2023/05/31 04:31:19;;;;;;;12.70;8.07;;;;;;;13.05;80.48;102447.00;5034836;28;20475;-63
2023/05/31 04:33:45;;;;;;;11.45;7.93;;;;;;;13.10;80.43;102461.28;5034688;28;20030;-64
2023/05/31 04:36:10;;;;;;;14.27;8.77;;;;;;;13.10;80.64;102461.28;5016920;28;20029;-65
2023/05/31 04:38:35;;;;;;;14.45;8.60;;;;;;;13.13;80.53;102452.50;5034499;28;20427;-64
2023/05/31 04:41:01;;;;;;;14.15;8.13;;;;;;;13.16;80.49;102449.94;5016626;28;20041;-64
2023/05/31 04:43:26;;;;;;;12.80;7.82;;;;;;;13.26;80.60;102449.34;5033470;28;20029;-64
2023/05/31 04:45:53;;;;;;;13.82;8.80;;;;;;;13.26;80.20;102450.25;5034553;28;20036;-63
2023/05/31 04:48:20;;;;;;;13.23;8.95;;;;;;;13.32;80.33;102451.25;5034375;28;20026;-64
2023/05/31 04:50:46;;;;;;;13.75;8.50;;;;;;;13.36;80.20;102448.75;5034029;28;20034;-66
2023/05/31 04:53:12;;;;;;;13.07;9.23;;;;;;;13.37;79.96;102457.59;5034251;28;20037;-64
2023/05/31 04:55:38;;;;;;;14.45;8.88;;;;;;;13.43;80.05;102458.63;5033713;28;20024;-64
2023/05/31 04:58:03;;;;;;;16.90;9.27;;;;;;;13.50;79.97;102452.63;5033856;28;20026;-63
2023/05/31 05:00:29;;;;;;;14.10;9.73;;;;;;;13.63;79.61;102461.78;5034050;28;20100;-64
2023/05/31 05:02:54;;;;;;;14.57;9.68;;;;;;;13.68;79.45;102456.59;5016436;28;20021;-63
2023/05/31 05:05:20;;;;;;;17.73;9.82;;;;;;;13.80;79.56;102458.63;5034221;28;20028;-63
2023/05/31 05:07:45;;;;;;;18.65;10.10;;;;;;;13.89;79.13;102456.19;5034047;28;20498;-64
2023/05/31 05:10:11;;;;;;;14.95;10.30;;;;;;;13.94;79.07;102463.38;5033957;28;20034;-63
2023/05/31 05:12:36;;;;;;;16.33;10.32;;;;;;;14.07;78.64;102464.56;5034046;28;20418;-63
2023/05/31 05:15:02;;;;;;;15.23;9.85;;;;;;;14.17;78.61;102468.31;5033747;28;20494;-63
2023/05/31 05:17:27;;;;;;;16.52;9.98;;;;;;;14.29;77.95;102465.94;5034072;28;20026;-63
2023/05/31 05:19:53;;;;;;;14.45;10.52;;;;;;;14.41;77.71;102459.97;5033543;28;20029;-64
2023/05/31 05:22:18;;;;;;;13.23;9.95;;;;;;;14.47;76.99;102453.03;5033589;28;20061;-63
2023/05/31 05:24:44;;;;;;;15.20;9.70;;;;;;;14.60;76.78;102470.16;5033617;28;20104;-64
2023/05/31 05:27:09;;;;;;;14.68;10.38;;;;;;;14.68;75.60;102465.00;5033070;28;20045;-64
2023/05/31 05:29:35;;;;;;;17.52;10.38;;;;;;;14.80;75.98;102467.91;5033215;28;20403;-64
2023/05/31 05:32:00;;;;;;;18.02;10.68;;;;;;;14.86;75.29;102468.03;5033627;28;20044;-63
2023/05/31 05:34:25;;;;;;;16.30;11.32;;;;;;;14.92;74.63;102469.91;5033401;28;20041;-62
2023/05/31 05:36:52;;;;;;;16.77;10.40;;;;;;;14.99;74.82;102458.50;5032855;28;20498;-63
2023/05/31 05:39:18;;;;;;;20.52;11.10;;;;;;;15.09;74.27;102467.56;5033209;28;20521;-63
2023/05/31 05:41:43;;;;;;;13.98;10.18;;;;;;;15.21;73.44;102465.13;5033094;28;20030;-63
2023/05/31 05:44:09;;;;;;;17.85;10.27;;;;;;;15.31;73.28;102468.81;5033096;28;20030;-63
2023/05/31 05:46:35;;;;;;;16.50;10.70;;;;;;;15.46;73.45;102466.41;5033471;28;20418;-64
2023/05/31 05:49:00;;;;;;;17.70;11.15;;;;;;;15.56;72.27;102473.69;5033125;28;20037;-62
2023/05/31 05:51:26;;;;;;;17.52;11.30;;;;;;;15.65;72.43;102468.53;5033027;28;20072;-63
2023/05/31 05:53:51;;;;;;;16.90;10.02;;;;;;;15.80;71.73;102473.19;5015479;28;20103;-64
2023/05/31 05:56:19;;;;;;;15.15;10.70;;;;;;;15.92;71.49;102470.72;5032756;28;20022;-63
2023/05/31 05:58:48;;;;;;;16.35;10.93;;;;;;;16.09;71.41;102472.75;5032719;28;20402;-63
2023/05/31 06:01:18;;;;;;;17.80;10.35;;;;;;;16.35;70.70;102462.41;5032844;28;20033;-63
2023/05/31 06:03:49;;;;;;;17.52;11.20;;;;;;;16.45;68.87;102467.91;5033287;28;20034;-64
2023/05/31 06:06:16;;;;;;;18.88;10.20;;;;;;;16.55;68.11;102468.00;5032880;28;20390;-64
2023/05/31 06:08:42;;;;;;;19.08;10.60;;;;;;;16.67;67.32;102470.84;5033199;28;20091;-63
2023/05/31 06:11:08;;;;;;;16.65;10.00;;;;;;;16.80;67.10;102470.13;5032903;28;20018;-63
2023/05/31 06:13:33;;;;;;;17.40;10.73;;;;;;;16.95;66.76;102466.72;5032922;28;20085;-64
2023/05/31 06:15:58;;;;;;;16.98;9.90;;;;;;;17.09;65.83;102465.09;5032733;28;20467;-64
2023/05/31 06:18:24;;;;;;;15.93;10.05;;;;;;;17.33;65.59;102471.53;5032863;28;20025;-64
2023/05/31 06:20:49;;;;;;;18.42;9.93;;;;;;;17.48;65.14;102474.34;5032890;28;20060;-64
2023/05/31 06:23:16;;;;;;;17.27;10.20;;;;;;;17.69;64.73;102476.28;5015052;28;20040;-64
2023/05/31 06:25:41;;;;;;;19.42;10.73;;;;;;;17.78;62.91;102484.41;5032026;28;20025;-64
2023/05/31 06:28:07;;;;;;;15.77;9.90;;;;;;;17.86;62.92;102476.41;5032576;28;20062;-63
2023/05/31 06:30:32;;;;;;;14.85;9.77;;;;;;;18.00;62.40;102464.94;5032451;28;20048;-62
2023/05/31 06:32:58;;;;;;;16.92;10.32;;;;;;;18.13;62.73;102481.06;5032504;28;20080;-65
2023/05/31 06:35:23;;;;;;;16.90;10.10;;;;;;;18.21;60.88;102476.66;5032243;28;20030;-64
2023/05/31 06:37:51;;;;;;;17.70;10.18;;;;;;;18.27;60.92;102476.66;5032365;28;20032;-65
2023/05/31 06:40:17;;;;;;;19.17;9.57;;;;;;;18.45;60.92;102482.09;5032085;28;20410;-64
2023/05/31 06:42:42;;;;;;;16.48;9.93;;;;;;;18.43;59.90;102483.88;5014611;28;20053;-63
2023/05/31 06:45:08;;;;;;;19.98;10.18;;;;;;;18.47;59.76;102480.34;5032735;28;20452;-63
2023/05/31 06:47:34;;;;;;;14.25;9.32;;;;;;;18.71;59.45;102482.25;5014718;28;20371;-64
2023/05/31 06:49:59;;;;;;;15.50;10.05;;;;;;;18.90;59.23;102477.84;5032280;28;20029;-63
2023/05/31 06:52:25;;;;;;;14.10;9.63;;;;;;;19.08;58.25;102485.00;5032186;28;20075;-64
2023/05/31 06:54:51;;;;;;;18.20;9.60;;;;;;;19.27;57.52;102489.53;5014513;28;20061;-65
2023/05/31 06:57:16;;;;;;;14.93;9.90;;;;;;;19.36;57.46;102485.94;5032106;28;20029;-64
2023/05/31 06:59:42;;;;;;;15.77;9.60;;;;;;;19.58;56.52;102478.81;5032268;28;20522;-65
2023/05/31 07:02:08;;;;;;;15.00;9.02;;;;;;;19.74;55.96;102480.63;5032298;28;20514;-63
2023/05/31 07:04:34;;;;;;;16.13;9.95;;;;;;;19.75;56.12;102484.19;5032218;28;20037;-63
2023/05/31 07:06:59;;;;;;;17.52;9.40;;;;;;;19.83;54.65;102485.06;5032171;28;20030;-64
2023/05/31 07:09:25;;;;;;;16.10;9.30;;;;;;;19.90;54.85;102476.09;5031997;28;20040;-64
2023/05/31 07:11:50;;;;;;;13.68;9.20;;;;;;;20.13;54.81;102476.06;5014602;28;20029;-65
2023/05/31 07:14:16;;;;;;;14.85;9.23;;;;;;;20.22;54.38;102472.47;5032044;28;20037;-63
2023/05/31 07:16:41;;;;;;;17.02;9.82;;;;;;;20.33;53.67;102478.66;5032349;28;20029;-63
2023/05/31 07:19:06;;;;;;;17.15;9.75;;;;;;;20.49;53.13;102479.53;5031973;28;20569;-64
2023/05/31 07:21:32;;;;;;;16.20;9.75;;;;;;;20.70;52.63;102470.50;5032246;28;20029;-65
2023/05/31 07:23:57;;;;;;;17.67;10.18;;;;;;;20.85;52.55;102465.00;5013843;28;20390;-63
2023/05/31 07:26:23;;;;;;;15.15;9.52;;;;;;;21.07;51.72;102465.78;5031725;28;20126;-63
2023/05/31 07:28:52;;;;;;;15.63;9.48;;;;;;;21.12;50.91;102461.25;5032085;28;20380;-63
2023/05/31 07:31:19;;;;;;;15.75;9.43;;;;;;;21.34;51.00;102467.41;5032092;28;20048;-63
2023/05/31 07:33:45;;;;;;;14.50;9.45;;;;;;;21.45;51.05;102459.22;5032136;28;20107;-63
2023/05/31 07:36:10;;;;;;;14.63;9.93;;;;;;;21.73;49.52;102465.25;5031893;28;20061;-64
2023/05/31 07:38:36;;;;;;;17.17;9.80;;;;;;;21.86;49.62;102458.84;5031803;28;20049;-65
2023/05/31 07:41:01;;;;;;;15.20;9.45;;;;;;;21.96;49.81;102449.75;5032041;28;20387;-64
2023/05/31 07:43:29;;;;;;;16.33;9.48;;;;;;;22.14;48.96;102458.56;5031954;28;20395;-63
2023/05/31 07:45:55;;;;;;;15.13;9.50;;;;;;;22.38;48.63;102460.06;5031775;28;20037;-64
2023/05/31 07:48:20;;;;;;;17.17;9.48;;;;;;;22.40;47.99;102453.78;5031920;28;20087;-65
2023/05/31 07:50:47;;;;;;;16.58;9.23;;;;;;;22.49;47.17;102459.03;5032118;28;20034;-64
2023/05/31 07:53:13;;;;;;;15.45;9.40;;;;;;;22.59;48.19;102448.13;5031633;28;20570;-64
2023/05/31 07:55:38;;;;;;;14.65;9.75;;;;;;;22.72;46.34;102444.34;5031567;28;20048;-63
2023/05/31 07:58:04;;;;;;;14.25;9.40;;;;;;;22.79;45.76;102445.16;5031764;28;20021;-64
2023/05/31 08:00:30;;;;;;;15.07;9.10;;;;;;;22.86;46.73;102449.53;5034167;28;20386;-65
2023/05/31 08:02:55;;;;;;;15.70;9.57;;;;;;;23.15;45.89;102438.34;5035136;28;20467;-65
2023/05/31 08:05:21;;;;;;;14.70;9.05;;;;;;;23.37;45.95;102438.88;5034044;28;20127;-63
2023/05/31 08:07:48;;;;;;;18.92;9.98;;;;;;;23.46;44.49;102439.59;5034809;28;20032;-64
2023/05/31 08:10:14;;;;;;;16.38;10.07;;;;;;;23.55;44.46;102437.66;5034000;28;20112;-65
2023/05/31 08:12:40;;;;;;;17.83;9.23;;;;;;;23.72;44.66;102431.09;5034974;28;20033;-64
2023/05/31 08:15:06;;;;;;;19.48;9.43;;;;;;;23.90;43.64;102435.22;5034895;28;20037;-64
2023/05/31 08:17:32;;;;;;;16.25;8.82;;;;;;;24.05;43.32;102431.31;5034969;28;20033;-63
2023/05/31 08:19:57;;;;;;;20.27;9.40;;;;;;;24.38;43.04;102429.78;5034907;28;20067;-64
2023/05/31 08:22:22;;;;;;;16.10;8.98;;;;;;;24.39;42.47;102419.84;5035114;28;20098;-65
2023/05/31 08:24:49;;;;;;;14.73;8.73;;;;;;;24.69;41.99;102431.78;5034553;28;20471;-64
2023/05/31 08:27:14;;;;;;;16.40;9.25;;;;;;;24.44;42.37;102426.03;5033204;28;20050;-64
2023/05/31 08:29:40;;;;;;;11.23;8.25;;;;;;;24.81;42.67;102430.63;5033512;28;20113;-64
2023/05/31 08:32:05;;;;;;;15.57;8.85;;;;;;;24.83;40.95;102424.22;5034822;28;20095;-65
2023/05/31 08:34:31;;;;;;;15.50;9.38;;;;;;;24.86;41.37;102426.00;5034814;28;20025;-64
2023/05/31 08:36:57;;;;;;;15.50;9.23;;;;;;;25.09;41.38;102417.34;5034711;28;20530;-64
2023/05/31 08:39:23;;;;;;;17.35;8.48;;;;;;;25.36;42.13;102424.78;5034593;28;20036;-65
2023/05/31 08:41:58;;;;;;;16.10;8.38;;;;;;;25.68;41.04;102415.78;5034702;28;20025;-63
2023/05/31 08:44:23;;;;;;;15.30;8.40;;;;;;;25.87;38.66;102427.03;5034461;28;20030;-65
2023/05/31 08:46:49;;;;;;;13.73;8.32;;;;;;;25.86;39.28;102422.53;5034455;28;20037;-64
2023/05/31 08:49:18;;;;;;;15.05;7.80;;;;;;;26.08;40.12;102417.41;5016677;28;20026;-63
2023/05/31 08:51:45;;;;;;;12.55;7.90;;;;;;;26.22;39.42;102414.28;5034173;28;20021;-64
2023/05/31 08:54:13;;;;;;;15.20;8.13;;;;;;;26.52;37.87;102417.94;5034046;28;20041;-64
2023/05/31 08:56:39;;;;;;;13.27;7.75;;;;;;;26.63;37.08;102414.88;5032756;28;20038;-64
2023/05/31 08:59:11;;;;;;;13.20;7.55;;;;;;;26.88;36.42;102412.25;5034195;28;20424;-64
2023/05/31 09:01:37;;;;;;;13.55;8.13;;;;;;;26.92;37.12;102397.66;5034058;28;20029;-65
2023/05/31 09:04:05;;;;;;;17.75;8.45;;;;;;;26.86;38.06;102401.47;5033797;28;20025;-65
2023/05/31 09:06:31;;;;;;;12.15;7.40;;;;;;;27.04;36.27;102399.97;5033789;28;20049;-63
2023/05/31 09:08:56;;;;;;;11.25;7.38;;;;;;;27.38;34.85;102405.16;5033908;28;20053;-64
2023/05/31 09:11:23;;;;;;;13.55;7.97;;;;;;;27.35;35.58;102402.56;5032694;28;20026;-63
2023/05/31 09:13:48;;;;;;;12.27;7.03;;;;;;;27.37;35.16;102397.97;5034092;28;20029;-63
2023/05/31 09:16:13;;;;;;;12.25;7.13;;;;;;;27.48;35.25;102402.13;5033983;28;20026;-65
2023/05/31 09:18:39;;;;;;;12.30;6.78;;;;;;;27.44;35.88;102407.66;5016113;28;20038;-63
2023/05/31 09:21:13;;;;;;;14.18;7.35;;;;;;;27.59;34.71;102391.78;5033928;28;20467;-65
2023/05/31 09:23:56;;;;;;;11.32;7.55;;;;;;;27.68;35.59;102392.31;5033922;28;20029;-65
2023/05/31 09:26:22;;;;;;;14.30;7.90;;;;;;;27.74;36.33;102388.53;5032195;28;20103;-64
2023/05/31 09:28:48;;;;;;;12.77;7.13;;;;;;;28.08;34.67;102385.44;5033779;28;20167;-65
2023/05/31 09:31:15;;;;;;;8.95;6.40;;;;;;;28.43;32.62;102383.19;5033549;28;20013;-65
2023/05/31 09:33:41;;;;;;;14.98;7.03;;;;;;;28.45;32.57;102392.19;5032664;28;20065;-65
2023/05/31 09:36:07;;;;;;;13.77;6.55;;;;;;;28.44;32.42;102385.88;5032311;28;20379;-64
2023/05/31 09:38:35;;;;;;;14.02;6.40;;;;;;;28.42;32.47;102386.88;5033482;28;20029;-65
2023/05/31 09:41:20;;;;;;;10.60;6.32;;;;;;;28.68;32.97;102373.09;5033680;28;20030;-65
2023/05/31 09:43:48;;;;;;;13.02;6.07;;;;;;;28.88;33.10;102369.56;5033604;28;20040;-65
2023/05/31 09:46:18;;;;;;;11.02;6.38;;;;;;;29.06;31.63;102369.78;5033461;28;20035;-63
2023/05/31 09:48:45;;;;;;;13.15;6.65;;;;;;;28.94;30.97;102369.28;5032072;28;20049;-65
2023/05/31 09:51:13;;;;;;;20.02;6.50;;;;;;;28.86;31.03;102362.41;5033395;28;20032;-65
2023/05/31 09:53:43;;;;;;;14.45;6.13;;;;;;;29.14;31.74;102359.44;5031843;28;20481;-63
2023/05/31 09:56:21;;;;;;;9.30;5.85;;;;;;;29.12;31.13;102362.25;5033500;28;20037;-64
2023/05/31 09:58:47;;;;;;;9.70;5.20;;;;;;;29.18;30.92;102356.53;5033487;28;20034;-64
2023/05/31 10:01:14;;;;;;;11.27;6.40;;;;;;;29.03;30.66;102365.34;5033028;28;20439;-64
2023/05/31 10:03:40;;;;;;;11.65;4.95;;;;;;;29.39;30.36;102367.44;5032065;28;20120;-64
2023/05/31 10:06:06;;;;;;;13.32;5.50;;;;;;;29.55;29.63;102354.00;5033038;28;20029;-65
2023/05/31 10:08:33;;;;;;;13.23;5.80;;;;;;;29.61;30.24;102359.22;5033032;28;20034;-66
2023/05/31 10:11:00;;;;;;;14.10;6.03;;;;;;;29.44;30.19;102351.75;5032855;28;20045;-64
2023/05/31 10:13:30;;;;;;;11.45;5.32;;;;;;;29.69;30.36;102346.13;5033069;28;20072;-65
2023/05/31 10:16:02;;;;;;;13.13;5.40;;;;;;;29.62;29.97;102356.41;5031635;28;20439;-64
2023/05/31 10:18:32;;;;;;;12.35;4.95;;;;;;;29.52;29.09;102354.16;5033075;28;20025;-65
2023/05/31 10:21:10;;;;;;;12.63;5.20;;;;;;;29.42;29.47;102340.94;5033333;28;20096;-65
2023/05/31 10:23:43;;;;;;;11.80;4.68;;;;;;;29.59;28.73;102342.94;5032491;28;20487;-63
2023/05/31 10:26:13;;;;;;;9.25;4.68;;;;;;;29.52;29.43;102335.09;5032579;28;20047;-65
2023/05/31 10:28:55;;;;;;;11.02;4.90;;;;;;;29.84;28.55;102333.63;5032583;28;20109;-65
2023/05/31 10:31:22;;;;;;;;;;;;;;;30.15;29.38;102331.28;5032451;28;20034;-65
2023/05/31 10:33:53;;;;;;;8.07;4.90;;;;;;;29.77;27.45;102334.88;5032339;28;19913;-65
2023/05/31 10:36:18;;;;;;;9.15;4.13;;;;;;;30.10;28.01;102316.03;5032666;28;20071;-64
2023/05/31 10:38:57;;;;;;;11.25;4.80;;;;;;;30.16;28.75;102318.50;5032492;28;20026;-64
2023/05/31 10:41:26;;;;;;;12.00;4.65;;;;;;;30.15;27.18;102320.38;5032492;28;20033;-65
2023/05/31 10:43:58;;;;;;;12.68;4.03;;;;;;;30.37;26.94;102322.03;5032739;28;20033;-64
2023/05/31 10:46:30;;;;;;;10.13;4.43;;;;;;;30.18;27.88;102313.84;5032671;28;20344;-64
2023/05/31 10:49:00;;;;;;;;;;;;;;;30.63;27.06;102299.78;5032852;28;20013;-65
2023/05/31 10:51:42;;;;;;;11.18;4.47;;;;;;;30.61;27.73;102304.44;5032552;28;20323;-65
2023/05/31 10:54:08;;;;;;;8.90;4.20;;;;;;;30.38;27.74;102293.81;5031273;28;20040;-65
2023/05/31 10:56:38;;;;;;;6.72;3.92;;;;;;;30.31;27.37;102300.50;5032247;28;20490;-65
2023/05/31 10:59:03;;;;;;;10.07;4.22;;;;;;;30.36;27.21;102290.25;5032352;28;20478;-65
2023/05/31 11:01:30;;;;;;;9.73;4.10;;;;;;;30.54;26.72;102297.53;5032401;28;20120;-64
2023/05/31 11:03:57;;;;;;;9.18;4.00;;;;;;;30.41;27.10;102286.34;5032405;28;20045;-65
2023/05/31 11:06:28;;;;;;;9.30;3.60;;;;;;;30.79;27.24;102293.56;5032389;28;20527;-65
2023/05/31 11:09:10;;;;;;;11.27;4.25;;;;;;;30.72;27.23;102293.03;5032169;28;20061;-64
2023/05/31 11:11:39;;;;;;;8.50;3.90;;;;;;;30.88;27.67;102287.66;5032414;28;20044;-64
2023/05/31 11:14:10;;;;;;;10.55;3.65;;;;;;;30.86;26.97;102289.56;5032495;28;20033;-64
2023/05/31 11:16:48;;;;;;;9.43;3.70;;;;;;;30.92;26.09;102284.69;5032350;28;20497;-64
2023/05/31 11:19:15;;;;;;;9.82;3.55;;;;;;;30.80;25.94;102282.59;5032092;28;20386;-65